Time;durP1;ratioP1;P1;durP2;ratioP2;P2;SDS_P1;SDS_P2;PMS_P1;PMS_P2;Temp;Humidity;BMP_temperature;BMP_pressure;BME280_temperature;BME280_humidity;BME280_pressure;Samples;Min_cycle;Max_cycle;Signal;HPM_P1;HPM_P2
2022/01/20 00:01:37;;;;;;;5.00;2.55;;;18.50;47.80;;;;;;5072685;28;20120;-65
2022/01/20 00:03:55;;;;;;;4.78;2.50;;;18.50;47.70;;;;;;5072746;28;20047;-65
2022/01/20 00:09:10;;;;;;;4.55;2.38;;;18.40;47.50;;;;;;5075578;28;20472;-65
2022/01/20 00:28:11;;;;;;;5.93;2.78;;;18.30;47.30;;;;;;5062535;28;20039;-64
2022/01/20 00:30:56;;;;;;;5.78;2.92;;;18.30;47.30;;;;;;5075032;28;20033;-65
2022/01/20 00:33:35;;;;;;;6.50;2.95;;;18.30;47.30;;;;;;5068899;28;20106;-64
2022/01/20 00:38:32;;;;;;;4.60;2.58;;;18.30;47.20;;;;;;5070024;28;20052;-65
2022/01/20 00:40:58;;;;;;;7.25;2.88;;;18.30;47.20;;;;;;5067009;28;20039;-65
2022/01/20 00:43:23;;;;;;;5.50;2.78;;;18.30;47.10;;;;;;5075453;28;20066;-65
2022/01/20 00:45:50;;;;;;;5.72;2.35;;;18.30;47.10;;;;;;5075406;28;20439;-65
2022/01/20 00:48:15;;;;;;;5.60;2.30;;;18.30;47.10;;;;;;5063626;28;20043;-65
2022/01/20 00:50:41;;;;;;;5.22;2.42;;;18.20;46.90;;;;;;5065778;28;20024;-65
2022/01/20 00:53:07;;;;;;;4.68;2.38;;;18.20;46.90;;;;;;5068273;28;20024;-65
2022/01/20 00:55:33;;;;;;;6.45;2.60;;;18.20;46.90;;;;;;5057053;28;20400;-64
2022/01/20 00:57:58;;;;;;;8.23;2.70;;;18.20;47.80;;;;;;5074265;28;20539;-64
2022/01/20 01:00:24;;;;;;;7.05;2.38;;;18.20;46.80;;;;;;5067773;28;20104;-65
2022/01/20 01:02:49;;;;;;;7.50;2.80;;;18.10;46.70;;;;;;5063682;28;20094;-65
2022/01/20 01:05:15;;;;;;;7.30;2.80;;;18.10;46.70;;;;;;5074436;28;20078;-64
2022/01/20 01:10:11;;;;;;;4.97;2.33;;;18.10;46.70;;;;;;5073862;28;20112;-65
2022/01/20 01:12:58;;;;;;;5.75;2.47;;;18.10;46.60;;;;;;5063908;28;20040;-65
2022/01/20 01:15:31;;;;;;;5.30;2.53;;;18.10;46.60;;;;;;5070231;28;20119;-64
2022/01/20 01:21:12;;;;;;;5.85;2.25;;;18.10;46.60;;;;;;5062987;28;20039;-65
2022/01/20 01:23:40;;;;;;;4.43;2.13;;;18.00;46.60;;;;;;5071922;28;20468;-65
2022/01/20 01:26:09;;;;;;;5.43;2.25;;;18.00;46.70;;;;;;5074418;28;20016;-63
2022/01/20 01:28:35;;;;;;;7.50;2.33;;;18.00;46.60;;;;;;5066001;28;20025;-63
2022/01/20 01:33:55;;;;;;;6.22;2.45;;;18.00;46.60;;;;;;5064658;28;20064;-63
2022/01/20 01:36:23;;;;;;;4.78;2.15;;;18.00;46.60;;;;;;5054930;28;20031;-63
2022/01/20 01:38:49;;;;;;;6.38;2.50;;;17.90;46.50;;;;;;5071018;28;20040;-63
2022/01/20 01:41:27;;;;;;;6.15;2.45;;;17.90;46.50;;;;;;5070885;28;20029;-63
2022/01/20 01:43:54;;;;;;;5.93;2.20;;;17.90;46.50;;;;;;5064128;28;20025;-63
2022/01/20 01:46:20;;;;;;;6.63;2.28;;;17.90;46.50;;;;;;5074041;28;20029;-63
2022/01/20 01:48:46;;;;;;;6.88;1.98;;;17.90;46.40;;;;;;5074084;28;20056;-63
2022/01/20 01:51:12;;;;;;;7.30;2.15;;;17.90;46.40;;;;;;5055402;28;20028;-64
2022/01/20 01:53:39;;;;;;;5.10;2.10;;;17.90;46.40;;;;;;5073210;28;20047;-65
2022/01/20 01:56:06;;;;;;;4.95;1.65;;;17.90;46.40;;;;;;5066367;28;20107;-65
2022/01/20 01:58:32;;;;;;;5.47;2.17;;;17.80;46.30;;;;;;5067725;28;20051;-64
2022/01/20 02:00:58;;;;;;;4.75;1.77;;;17.80;46.30;;;;;;5071616;28;20028;-65
2022/01/20 02:03:24;;;;;;;4.45;2.17;;;17.80;46.30;;;;;;5063921;28;20024;-65
2022/01/20 02:08:38;;;;;;;4.43;2.00;;;17.80;46.30;;;;;;5064707;28;20025;-64
2022/01/20 02:19:18;;;;;;;5.85;2.00;;;17.70;46.30;;;;;;5066977;28;20059;-63
2022/01/20 02:21:53;;;;;;;4.65;1.92;;;17.70;46.30;;;;;;5044101;28;20033;-63
2022/01/20 02:24:19;;;;;;;5.65;2.30;;;17.70;46.30;;;;;;5061635;28;20028;-64
2022/01/20 02:26:45;;;;;;;3.92;1.63;;;17.70;46.30;;;;;;5072719;28;20039;-65
2022/01/20 02:29:12;;;;;;;4.40;1.50;;;17.60;46.30;;;;;;5073439;28;20032;-65
2022/01/20 02:31:39;;;;;;;6.60;1.90;;;17.70;46.30;;;;;;5065702;28;20056;-65
2022/01/20 02:34:04;;;;;;;6.03;1.75;;;17.70;46.30;;;;;;5064751;28;20033;-65
2022/01/20 02:36:31;;;;;;;4.72;1.65;;;17.70;46.30;;;;;;5053940;28;20025;-65
2022/01/20 02:39:08;;;;;;;3.85;1.45;;;17.60;46.20;;;;;;5071129;28;20123;-65
2022/01/20 02:47:12;;;;;;;6.53;1.70;;;17.60;46.10;;;;;;5066173;28;20098;-63
2022/01/20 02:49:37;;;;;;;4.95;1.70;;;17.60;46.20;;;;;;5070535;28;20434;-63
2022/01/20 02:52:03;;;;;;;3.88;1.63;;;17.60;46.20;;;;;;5055980;28;20480;-63
2022/01/20 02:54:29;;;;;;;3.22;1.50;;;17.60;46.20;;;;;;5069275;28;20060;-63
2022/01/20 02:56:54;;;;;;;3.65;1.55;;;17.60;46.20;;;;;;5054624;28;20029;-63
2022/01/20 02:59:20;;;;;;;3.95;1.40;;;17.60;46.20;;;;;;5073802;28;20337;-63
2022/01/20 03:01:46;;;;;;;4.05;1.80;;;17.50;46.10;;;;;;5062556;28;20350;-64
2022/01/20 03:04:11;;;;;;;5.65;1.90;;;17.50;46.10;;;;;;5065489;28;20376;-63
2022/01/20 03:06:37;;;;;;;5.80;1.50;;;17.50;46.10;;;;;;5071468;28;20021;-63
2022/01/20 03:09:04;;;;;;;3.42;1.40;;;17.50;47.10;;;;;;5051034;28;20553;-64
2022/01/20 03:11:29;;;;;;;5.47;1.80;;;17.50;46.00;;;;;;5053652;28;20025;-63
2022/01/20 03:13:55;;;;;;;4.20;1.40;;;17.50;46.10;;;;;;5058614;28;20024;-64
2022/01/20 03:16:21;;;;;;;3.00;1.45;;;17.50;46.00;;;;;;5073493;28;20116;-64
2022/01/20 03:18:47;;;;;;;3.70;1.42;;;17.50;46.00;;;;;;5072098;28;20095;-65
2022/01/20 03:21:12;;;;;;;3.28;1.25;;;17.50;46.00;;;;;;5069826;28;20040;-64
2022/01/20 03:23:38;;;;;;;3.80;1.60;;;17.50;46.10;;;;;;5040284;28;20671;-63
2022/01/20 03:26:04;;;;;;;4.18;1.52;;;17.50;46.00;;;;;;5069005;28;20078;-63
2022/01/20 03:28:29;;;;;;;4.22;1.60;;;17.40;46.00;;;;;;5070636;28;20037;-63
2022/01/20 03:30:55;;;;;;;4.45;1.55;;;17.50;46.10;;;;;;5059854;28;20480;-63
2022/01/20 03:33:21;;;;;;;3.83;1.27;;;17.40;46.00;;;;;;5069093;28;20041;-63
2022/01/20 03:35:47;;;;;;;4.40;1.45;;;17.40;46.00;;;;;;5074789;28;20044;-64
2022/01/20 03:38:13;;;;;;;4.57;1.85;;;17.40;46.00;;;;;;5074187;28;20044;-64
2022/01/20 03:40:39;;;;;;;3.90;1.30;;;17.40;46.10;;;;;;5079770;28;20364;-63
2022/01/20 03:43:04;;;;;;;5.65;1.48;;;17.40;46.00;;;;;;5075422;28;20379;-63
2022/01/20 03:45:30;;;;;;;2.78;1.30;;;17.40;46.00;;;;;;5059990;28;20033;-63
2022/01/20 03:48:06;;;;;;;4.57;1.40;;;17.40;46.00;;;;;;5069215;28;20078;-64
2022/01/20 03:53:16;;;;;;;4.03;1.10;;;17.40;46.00;;;;;;5071843;28;20452;-65
2022/01/20 03:55:42;;;;;;;2.95;1.40;;;17.30;46.00;;;;;;5072562;28;20052;-65
2022/01/20 03:58:08;;;;;;;2.38;1.23;;;17.30;46.00;;;;;;5070352;28;20028;-65
2022/01/20 04:00:34;;;;;;;4.32;1.38;;;17.30;46.00;;;;;;5078256;28;20567;-63
2022/01/20 04:03:00;;;;;;;4.93;1.40;;;17.30;45.90;;;;;;5065058;28;20047;-64
2022/01/20 04:05:25;;;;;;;4.50;1.50;;;17.30;46.00;;;;;;5074955;28;20442;-64
2022/01/20 04:07:51;;;;;;;3.58;1.13;;;17.30;45.90;;;;;;5078275;28;20033;-65
2022/01/20 04:10:17;;;;;;;4.28;1.20;;;17.30;46.00;;;;;;5079711;28;20079;-65
2022/01/20 04:12:43;;;;;;;3.38;1.10;;;17.30;45.90;;;;;;5078166;28;20471;-65
2022/01/20 04:15:09;;;;;;;4.65;1.30;;;17.30;45.90;;;;;;5075297;28;20386;-65
2022/01/20 04:17:42;;;;;;;3.20;1.35;;;17.30;45.90;;;;;;5062206;28;20075;-65
2022/01/20 04:20:08;;;;;;;3.03;1.05;;;17.30;46.00;;;;;;5072231;28;20459;-65
2022/01/20 04:22:34;;;;;;;3.65;1.15;;;17.30;46.00;;;;;;5067559;28;20037;-64
2022/01/20 04:25:00;;;;;;;2.58;0.85;;;17.20;45.90;;;;;;5072387;28;20074;-64
2022/01/20 04:27:25;;;;;;;3.53;1.02;;;17.30;46.00;;;;;;5071780;28;20032;-63
2022/01/20 04:29:51;;;;;;;2.10;1.15;;;17.20;45.90;;;;;;5071536;28;20480;-63
2022/01/20 04:32:17;;;;;;;2.05;0.77;;;17.20;45.90;;;;;;5078644;28;20531;-64
2022/01/20 04:34:44;;;;;;;3.85;1.25;;;17.20;45.90;;;;;;5064071;28;20029;-64
2022/01/20 04:37:10;;;;;;;3.13;1.10;;;17.20;45.90;;;;;;5068343;28;20064;-64
2022/01/20 04:39:42;;;;;;;2.63;1.10;;;17.20;45.90;;;;;;5060933;28;20519;-64
2022/01/20 04:42:08;;;;;;;3.03;1.00;;;17.20;45.90;;;;;;5075597;28;20487;-63
2022/01/20 04:44:50;;;;;;;3.00;0.90;;;17.20;45.90;;;;;;5060299;28;20032;-63
2022/01/20 04:57:53;;;;;;;2.08;0.70;;;17.10;46.00;;;;;;5073225;28;20104;-64
2022/01/20 05:00:19;;;;;;;2.95;1.02;;;17.10;46.00;;;;;;5074862;28;20119;-63
2022/01/20 05:02:45;;;;;;;3.15;1.00;;;17.10;46.00;;;;;;5074736;28;20108;-63
2022/01/20 05:05:10;;;;;;;1.58;0.80;;;17.10;46.00;;;;;;5075821;28;20543;-63
2022/01/20 05:07:36;;;;;;;3.70;1.15;;;17.10;46.00;;;;;;5074758;28;20028;-63
2022/01/20 05:10:06;;;;;;;3.22;0.85;;;17.10;46.00;;;;;;5075708;28;20025;-63
2022/01/20 05:12:59;;;;;;;2.35;0.75;;;17.10;46.00;;;;;;5068899;28;20031;-63
2022/01/20 05:15:19;;;;;;;3.85;1.08;;;17.10;46.00;;;;;;5070258;28;20400;-63
2022/01/20 05:17:44;;;;;;;3.03;0.82;;;17.10;46.00;;;;;;5070578;28;20020;-63
2022/01/20 05:20:10;;;;;;;4.20;0.90;;;17.00;45.90;;;;;;5075350;28;20090;-64
2022/01/20 05:22:36;;;;;;;2.38;0.80;;;17.00;45.90;;;;;;5075041;28;20463;-65
2022/01/20 05:25:03;;;;;;;4.13;1.10;;;17.00;46.00;;;;;;5073146;28;20107;-65
2022/01/20 05:27:29;;;;;;;1.65;0.47;;;17.00;46.00;;;;;;5060951;28;20473;-65
2022/01/20 05:29:55;;;;;;;3.08;0.90;;;17.00;45.90;;;;;;5058476;28;20041;-65
2022/01/20 05:32:22;;;;;;;2.38;0.93;;;17.00;46.00;;;;;;5059619;28;20029;-65
2022/01/20 05:34:48;;;;;;;2.50;0.77;;;17.00;45.90;;;;;;5060085;28;20490;-63
2022/01/20 05:37:13;;;;;;;2.22;0.47;;;17.00;45.90;;;;;;5055166;28;20041;-64
2022/01/20 05:39:41;;;;;;;1.70;0.80;;;17.00;45.90;;;;;;5056099;28;20516;-64
2022/01/20 05:42:07;;;;;;;2.50;0.90;;;17.00;45.90;;;;;;5066724;28;20064;-64
2022/01/20 05:44:33;;;;;;;1.95;0.60;;;17.00;45.90;;;;;;5067257;28;20096;-64
2022/01/20 05:47:05;;;;;;;1.45;0.60;;;17.00;45.90;;;;;;5067720;28;20108;-64
2022/01/20 05:49:30;;;;;;;3.17;0.80;;;17.00;45.90;;;;;;5074379;28;20035;-64
2022/01/20 05:51:56;;;;;;;2.38;0.77;;;17.00;46.00;;;;;;5074021;28;20036;-64
2022/01/20 05:54:22;;;;;;;2.33;0.63;;;16.90;45.90;;;;;;5063689;28;20067;-65
2022/01/20 05:56:48;;;;;;;1.55;0.60;;;16.90;45.90;;;;;;5072908;28;20107;-65
2022/01/20 05:59:14;;;;;;;2.35;0.60;;;16.90;45.90;;;;;;5074272;28;20112;-65
2022/01/20 06:01:40;;;;;;;1.92;0.80;;;16.90;45.90;;;;;;5073406;28;20059;-64
2022/01/20 06:04:09;;;;;;;3.55;1.00;;;16.90;45.90;;;;;;5040380;28;20079;-64
2022/01/20 06:06:35;;;;;;;2.30;0.70;;;16.90;46.00;;;;;;5054783;28;20471;-63
2022/01/20 06:09:04;;;;;;;1.75;0.52;;;16.90;46.00;;;;;;5070558;28;20107;-64
2022/01/20 06:11:30;;;;;;;2.65;0.63;;;16.90;46.00;;;;;;5063706;28;20040;-65
2022/01/20 06:13:56;;;;;;;2.90;0.60;;;16.90;45.90;;;;;;5067725;28;20037;-65
2022/01/20 06:16:21;;;;;;;1.10;0.52;;;16.90;46.00;;;;;;5054305;28;20108;-65
2022/01/20 06:18:47;;;;;;;2.90;0.73;;;16.90;46.00;;;;;;5048869;28;20395;-65
2022/01/20 06:21:13;;;;;;;2.20;0.70;;;16.90;46.00;;;;;;5054435;28;20033;-65
2022/01/20 06:23:40;;;;;;;1.15;0.57;;;16.80;45.90;;;;;;5070399;28;20041;-65
2022/01/20 06:26:06;;;;;;;2.10;0.60;;;16.80;45.90;;;;;;5054217;28;20052;-65
2022/01/20 06:28:37;;;;;;;1.52;0.60;;;16.80;45.90;;;;;;5065084;28;20040;-65
2022/01/20 06:31:03;;;;;;;2.13;1.10;;;16.80;45.90;;;;;;5064855;28;20032;-65
2022/01/20 06:33:29;;;;;;;2.70;0.60;;;16.80;45.90;;;;;;5073351;28;20066;-65
2022/01/20 06:35:55;;;;;;;2.88;0.70;;;16.80;46.00;;;;;;5064664;28;20123;-65
2022/01/20 06:38:21;;;;;;;4.05;0.65;;;16.80;45.90;;;;;;5068044;28;20049;-65
2022/01/20 06:40:47;;;;;;;2.38;0.63;;;16.80;45.90;;;;;;5062608;28;20032;-65
2022/01/20 06:43:13;;;;;;;1.92;0.50;;;16.80;45.90;;;;;;5067872;28;20460;-64
2022/01/20 06:45:38;;;;;;;2.65;0.55;;;16.80;45.90;;;;;;5068997;28;20036;-64
2022/01/20 06:48:04;;;;;;;1.45;0.63;;;16.80;45.90;;;;;;5056789;28;20040;-64
2022/01/20 06:50:30;;;;;;;1.83;0.57;;;16.80;45.90;;;;;;5062321;28;20426;-64
2022/01/20 06:52:56;;;;;;;2.20;0.57;;;16.70;45.90;;;;;;5058711;28;20045;-64
2022/01/20 06:55:22;;;;;;;3.47;0.57;;;16.70;45.90;;;;;;5062919;28;20032;-63
2022/01/20 06:57:48;;;;;;;3.67;0.68;;;16.70;45.90;;;;;;5070843;28;20025;-64
2022/01/20 07:00:17;;;;;;;1.42;0.50;;;16.70;46.00;;;;;;5071510;28;20035;-64
2022/01/20 07:02:44;;;;;;;2.58;0.57;;;16.70;45.90;;;;;;5072761;28;20490;-65
2022/01/20 07:05:14;;;;;;;2.70;0.68;;;16.70;45.90;;;;;;5071664;28;20119;-65
2022/01/20 07:07:40;;;;;;;3.20;0.70;;;16.70;46.00;;;;;;5071009;28;20427;-65
2022/01/20 07:10:07;;;;;;;1.85;0.70;;;16.70;45.90;;;;;;5071809;28;20032;-65
2022/01/20 07:12:33;;;;;;;3.05;0.60;;;16.70;46.00;;;;;;5067515;28;20029;-65
2022/01/20 07:14:59;;;;;;;2.15;0.60;;;16.70;46.00;;;;;;5061979;28;20487;-65
2022/01/20 07:17:25;;;;;;;1.90;0.50;;;16.70;46.00;;;;;;5067631;28;20047;-65
2022/01/20 07:19:51;;;;;;;2.13;0.50;;;16.70;46.00;;;;;;5064851;28;20060;-65
2022/01/20 07:22:17;;;;;;;2.38;0.70;;;16.60;45.90;;;;;;5067626;28;20087;-65
2022/01/20 07:24:43;;;;;;;2.55;0.52;;;16.70;46.00;;;;;;5061628;28;20464;-65
2022/01/20 07:27:09;;;;;;;2.20;0.52;;;16.60;46.00;;;;;;5072330;28;20445;-63
2022/01/20 07:29:34;;;;;;;3.55;0.80;;;16.60;45.90;;;;;;5068965;28;20468;-66
2022/01/20 07:32:03;;;;;;;4.07;0.90;;;16.50;44.80;;;;;;5070381;28;20047;-66
2022/01/20 07:34:29;;;;;;;4.47;1.00;;;16.30;44.30;;;;;;5061117;28;20029;-64
2022/01/20 07:36:55;;;;;;;5.47;1.27;;;16.10;44.40;;;;;;5056698;28;20040;-64
2022/01/20 07:39:22;;;;;;;8.55;1.30;;;16.00;44.80;;;;;;5069330;28;20055;-65
2022/01/20 07:41:47;;;;;;;5.32;1.23;;;15.90;44.50;;;;;;5071745;28;20047;-67
2022/01/20 07:44:17;;;;;;;5.78;1.58;;;16.00;44.60;;;;;;5059682;28;20516;-66
2022/01/20 07:46:43;;;;;;;6.38;1.13;;;16.00;43.40;;;;;;5046437;28;20154;-70
2022/01/20 07:49:09;;;;;;;5.78;1.20;;;16.10;43.60;;;;;;5069912;28;20051;-68
2022/01/20 07:51:34;;;;;;;6.47;1.38;;;16.20;43.60;;;;;;5044815;28;20476;-68
2022/01/20 07:54:00;;;;;;;6.35;1.20;;;16.30;43.30;;;;;;5055016;28;20473;-68
2022/01/20 07:56:26;;;;;;;7.10;1.05;;;16.50;43.30;;;;;;5063413;28;20468;-68
2022/01/20 07:58:52;;;;;;;4.68;1.20;;;16.60;43.70;;;;;;5069123;28;20043;-68
2022/01/20 08:01:18;;;;;;;3.40;1.00;;;16.80;43.30;;;;;;5050554;28;20025;-69
2022/01/20 08:03:43;;;;;;;4.47;1.00;;;17.00;43.20;;;;;;5060029;28;20025;-68
2022/01/20 08:06:09;;;;;;;4.38;1.00;;;17.10;43.20;;;;;;5059801;28;20022;-68
2022/01/20 08:08:34;;;;;;;2.42;0.80;;;17.20;43.10;;;;;;5054570;28;20052;-68
2022/01/20 08:11:00;;;;;;;4.05;1.20;;;17.40;43.00;;;;;;5053703;28;20044;-70
2022/01/20 08:13:26;;;;;;;4.03;1.00;;;17.50;42.90;;;;;;5059908;28;20025;-68
2022/01/20 08:15:52;;;;;;;3.33;0.80;;;17.60;42.80;;;;;;5076381;28;20041;-69
2022/01/20 08:18:17;;;;;;;3.83;1.15;;;17.70;42.70;;;;;;5076574;28;20025;-70
2022/01/20 08:20:43;;;;;;;6.57;1.20;;;17.80;42.70;;;;;;5039403;28;20365;-69
2022/01/20 08:23:08;;;;;;;2.58;0.82;;;17.80;42.50;;;;;;5056100;28;20037;-69
2022/01/20 08:25:34;;;;;;;3.45;1.05;;;17.90;42.30;;;;;;5056425;28;20108;-69
2022/01/20 08:28:00;;;;;;;3.97;1.08;;;18.00;42.40;;;;;;5056359;28;20377;-70
2022/01/20 08:30:26;;;;;;;2.55;0.80;;;18.10;42.30;;;;;;5059187;28;20109;-70
2022/01/20 08:32:52;;;;;;;3.70;0.80;;;18.10;42.10;;;;;;5076097;28;20028;-68
2022/01/20 08:35:21;;;;;;;1.60;0.60;;;18.30;42.10;;;;;;5076253;28;20027;-70
2022/01/20 08:37:46;;;;;;;1.85;0.90;;;18.40;41.90;;;;;;5076129;28;20074;-69
2022/01/20 08:40:15;;;;;;;5.07;1.27;;;18.50;41.80;;;;;;5057667;28;20053;-69
2022/01/20 08:42:43;;;;;;;5.35;1.25;;;18.50;41.50;;;;;;5075950;28;20020;-68
2022/01/20 08:45:10;;;;;;;5.15;0.98;;;18.60;41.90;;;;;;5076034;28;20021;-69
2022/01/20 08:47:38;;;;;;;4.82;0.85;;;18.70;44.60;;;;;;5076013;28;20115;-67
2022/01/20 08:50:06;;;;;;;4.35;1.10;;;18.80;44.10;;;;;;5075909;28;20032;-68
2022/01/20 08:52:32;;;;;;;3.05;1.10;;;18.90;43.60;;;;;;5075922;28;20094;-67
2022/01/20 08:54:58;;;;;;;4.10;1.10;;;18.90;43.30;;;;;;5076050;28;20020;-67
2022/01/20 08:57:28;;;;;;;5.18;1.20;;;19.00;43.00;;;;;;5050262;28;20029;-67
2022/01/20 08:59:54;;;;;;;3.63;1.02;;;19.10;42.70;;;;;;5076138;28;20036;-67
2022/01/20 09:02:21;;;;;;;3.33;0.80;;;19.20;42.50;;;;;;5075743;28;20093;-68
2022/01/20 09:04:47;;;;;;;2.10;0.80;;;19.20;42.20;;;;;;5070884;28;20017;-68
2022/01/20 09:07:13;;;;;;;3.40;0.75;;;19.30;42.10;;;;;;5071612;28;20032;-69
2022/01/20 09:09:45;;;;;;;3.00;1.10;;;19.30;41.50;;;;;;5068343;28;20017;-71
2022/01/20 09:17:23;;;;;;;4.32;0.80;;;19.50;41.30;;;;;;5065226;28;20170;-70
2022/01/20 09:19:49;;;;;;;2.38;0.77;;;19.50;41.10;;;;;;5072095;28;20091;-69
2022/01/20 09:22:15;;;;;;;1.98;0.70;;;19.60;40.80;;;;;;5054346;28;20027;-70
2022/01/20 09:24:42;;;;;;;3.78;0.80;;;19.70;40.60;;;;;;5065019;28;20037;-69
2022/01/20 09:27:08;;;;;;;3.10;0.98;;;19.70;40.40;;;;;;5056232;28;20480;-70
2022/01/20 09:29:34;;;;;;;1.88;0.77;;;19.80;40.20;;;;;;5055202;28;20021;-69
2022/01/20 09:32:02;;;;;;;3.67;0.70;;;19.90;40.00;;;;;;5064896;28;20017;-70
2022/01/20 09:34:28;;;;;;;2.25;0.47;;;19.90;40.80;;;;;;5065961;28;20035;-70
2022/01/20 09:36:54;;;;;;;1.80;0.60;;;20.00;40.70;;;;;;5069489;28;20033;-69
2022/01/20 09:39:20;;;;;;;2.55;0.88;;;20.10;39.60;;;;;;5073952;28;20450;-69
2022/01/20 09:41:46;;;;;;;2.30;0.50;;;20.10;39.40;;;;;;5060283;28;20120;-70
2022/01/20 09:44:12;;;;;;;2.42;0.77;;;20.20;39.20;;;;;;5074027;28;20135;-70
2022/01/20 09:46:38;;;;;;;2.35;0.70;;;20.20;39.10;;;;;;5072461;28;20515;-69
2022/01/20 09:49:04;;;;;;;1.60;0.57;;;20.30;39.00;;;;;;5068493;28;20036;-70
2022/01/20 09:51:30;;;;;;;1.40;0.45;;;20.30;38.80;;;;;;5073562;28;20039;-69
2022/01/20 09:53:55;;;;;;;2.45;0.65;;;20.40;38.70;;;;;;5063799;28;20380;-69
2022/01/20 09:56:21;;;;;;;3.35;0.52;;;20.40;38.60;;;;;;5052168;28;20025;-69
2022/01/20 09:58:47;;;;;;;2.15;0.68;;;20.50;38.50;;;;;;5056335;28;20029;-69
2022/01/20 10:01:15;;;;;;;1.77;0.40;;;20.50;38.30;;;;;;5067994;28;20098;-69
2022/01/20 10:03:46;;;;;;;1.85;0.40;;;20.60;38.30;;;;;;5045554;28;20075;-69
2022/01/20 10:06:11;;;;;;;2.58;0.65;;;20.70;38.20;;;;;;5071133;28;20059;-69
2022/01/20 10:08:37;;;;;;;1.67;0.30;;;20.70;38.00;;;;;;5060622;28;20060;-69
2022/01/20 10:11:10;;;;;;;2.88;0.70;;;20.70;38.00;;;;;;5073378;28;20062;-70
2022/01/20 10:13:39;;;;;;;1.70;0.40;;;20.80;37.80;;;;;;5073127;28;20033;-70
2022/01/20 10:16:06;;;;;;;1.67;0.60;;;20.80;37.80;;;;;;5073300;28;20044;-70
2022/01/20 10:18:44;;;;;;;1.02;0.40;;;20.90;37.70;;;;;;5058460;28;20029;-70
2022/01/20 10:21:09;;;;;;;2.53;0.80;;;20.90;37.60;;;;;;5059861;28;20476;-70
2022/01/20 10:23:47;;;;;;;1.63;0.60;;;20.90;37.50;;;;;;5070161;28;20031;-70
2022/01/20 10:26:16;;;;;;;2.00;0.57;;;21.00;37.20;;;;;;5058531;28;20031;-70
2022/01/20 10:29:03;;;;;;;2.47;0.80;;;21.00;37.20;;;;;;5041235;28;20025;-69
2022/01/20 10:31:46;;;;;;;1.70;0.68;;;21.10;36.90;;;;;;5045995;28;20111;-69
2022/01/20 10:34:35;;;;;;;0.57;0.30;;;21.10;37.00;;;;;;5063682;28;20584;-69
2022/01/20 10:37:16;;;;;;;2.17;0.47;;;21.20;36.80;;;;;;5066264;28;20029;-70
2022/01/20 10:39:46;;;;;;;1.65;0.60;;;21.20;36.80;;;;;;5072314;28;20055;-69
2022/01/20 10:42:21;;;;;;;2.92;0.88;;;21.30;36.90;;;;;;5072387;28;20024;-69
2022/01/20 10:44:51;;;;;;;2.17;0.40;;;21.30;36.60;;;;;;5073428;28;20407;-70
2022/01/20 10:47:22;;;;;;;2.15;0.57;;;21.40;36.70;;;;;;5072998;28;20042;-70
2022/01/20 10:49:49;;;;;;;1.33;0.50;;;21.40;36.60;;;;;;5049207;28;20032;-69
2022/01/20 10:52:18;;;;;;;2.63;0.60;;;21.40;36.50;;;;;;5060248;28;20025;-68
2022/01/20 10:54:48;;;;;;;1.65;0.60;;;21.50;36.40;;;;;;5058375;28;20507;-69
2022/01/20 10:57:16;;;;;;;1.58;0.60;;;21.50;36.30;;;;;;5051331;28;20029;-68
2022/01/20 10:59:53;;;;;;;2.47;0.70;;;21.60;36.20;;;;;;5072477;28;20029;-69
2022/01/20 11:02:22;;;;;;;3.88;1.00;;;21.60;36.00;;;;;;5051599;28;20121;-70
2022/01/20 11:04:49;;;;;;;3.20;0.77;;;21.70;35.70;;;;;;5068106;28;20150;-68
2022/01/20 11:07:15;;;;;;;3.20;0.82;;;21.60;34.90;;;;;;5070853;28;20029;-69
2022/01/20 11:09:51;;;;;;;3.33;0.80;;;21.70;34.70;;;;;;5061955;28;20028;-69
2022/01/20 11:12:20;;;;;;;2.20;0.68;;;21.60;34.40;;;;;;5072580;28;20024;-68
2022/01/20 11:14:47;;;;;;;2.38;0.60;;;21.60;34.40;;;;;;5062784;28;20056;-68
2022/01/20 11:17:21;;;;;;;2.10;0.60;;;21.60;34.30;;;;;;5072097;28;20024;-67
2022/01/20 11:19:47;;;;;;;1.85;0.63;;;21.60;34.30;;;;;;5062050;28;20017;-67
2022/01/20 11:22:14;;;;;;;2.17;0.60;;;21.70;34.50;;;;;;5067982;28;20108;-68
2022/01/20 11:24:42;;;;;;;1.33;0.40;;;21.70;34.50;;;;;;5072936;28;20026;-68
2022/01/20 11:27:11;;;;;;;1.45;0.57;;;21.80;34.40;;;;;;5050893;28;20071;-67
2022/01/20 11:29:44;;;;;;;2.65;0.82;;;21.90;34.40;;;;;;5064303;28;20063;-67
2022/01/20 11:32:21;;;;;;;2.38;0.65;;;21.90;34.40;;;;;;5053778;28;20104;-68
2022/01/20 11:34:58;;;;;;;2.13;0.40;;;22.00;34.40;;;;;;5066732;28;20379;-68
2022/01/20 11:37:25;;;;;;;2.15;0.50;;;22.00;34.40;;;;;;5056221;28;20083;-67
2022/01/20 11:39:53;;;;;;;3.47;0.60;;;22.00;34.40;;;;;;5054834;28;20193;-67
2022/01/20 11:42:23;;;;;;;1.23;0.50;;;22.10;35.50;;;;;;5063934;28;20024;-67
2022/01/20 11:44:50;;;;;;;1.38;0.55;;;22.10;34.50;;;;;;5053349;28;20021;-67
2022/01/20 11:47:15;;;;;;;2.17;0.60;;;22.20;34.50;;;;;;5057346;28;20053;-67
2022/01/20 11:49:43;;;;;;;2.35;0.68;;;22.30;34.40;;;;;;5039378;28;20064;-69
2022/01/20 11:52:09;;;;;;;3.30;0.80;;;22.30;34.10;;;;;;5057292;28;20113;-70
2022/01/20 11:54:45;;;;;;;3.65;0.73;;;22.30;34.20;;;;;;5061342;28;20024;-69
2022/01/20 11:57:13;;;;;;;3.50;0.93;;;22.30;34.30;;;;;;5077348;28;20016;-70
2022/01/20 11:59:53;;;;;;;3.72;0.90;;;22.20;34.40;;;;;;5058986;28;20036;-69
2022/01/20 12:02:34;;;;;;;2.30;0.65;;;22.20;34.50;;;;;;5076982;28;20059;-70
2022/01/20 12:05:03;;;;;;;2.47;0.85;;;22.10;34.00;;;;;;5076778;28;20047;-69
2022/01/20 12:07:34;;;;;;;4.03;0.80;;;22.10;34.60;;;;;;5077062;28;20019;-67
2022/01/20 12:10:05;;;;;;;3.33;0.80;;;22.10;35.30;;;;;;5076799;28;20017;-66
2022/01/20 12:12:32;;;;;;;3.20;0.90;;;22.10;35.30;;;;;;5076684;28;20096;-66
2022/01/20 12:15:07;;;;;;;2.75;0.82;;;22.10;35.50;;;;;;5076397;28;20024;-67
2022/01/20 12:17:33;;;;;;;1.98;0.88;;;22.10;35.70;;;;;;5073718;28;20101;-67
2022/01/20 12:19:59;;;;;;;1.60;0.63;;;22.10;35.70;;;;;;5062405;28;20452;-67
2022/01/20 12:22:25;;;;;;;3.35;0.70;;;22.10;35.70;;;;;;5059657;28;20096;-67
2022/01/20 12:24:56;;;;;;;1.67;0.50;;;22.10;35.70;;;;;;5062156;28;20108;-67
2022/01/20 12:27:24;;;;;;;3.13;0.75;;;22.20;35.70;;;;;;5056694;28;20104;-67
2022/01/20 12:29:50;;;;;;;2.40;0.63;;;22.10;35.80;;;;;;5070784;28;20046;-69
2022/01/20 12:32:18;;;;;;;2.95;0.60;;;22.10;35.90;;;;;;5076540;28;20056;-66
2022/01/20 12:34:44;;;;;;;3.45;0.65;;;22.10;35.70;;;;;;5063177;28;20392;-67
2022/01/20 12:37:10;;;;;;;1.92;0.70;;;22.10;35.70;;;;;;5056348;28;20032;-68
2022/01/20 12:39:38;;;;;;;2.10;0.65;;;22.10;35.60;;;;;;5056034;28;20053;-67
2022/01/20 12:42:11;;;;;;;2.25;0.55;;;22.10;35.60;;;;;;5065472;28;20040;-66
2022/01/20 12:44:48;;;;;;;3.72;0.70;;;22.10;35.70;;;;;;5075992;28;20490;-66
2022/01/20 12:47:15;;;;;;;3.70;0.55;;;22.10;35.90;;;;;;5075913;28;20016;-64
2022/01/20 12:49:41;;;;;;;3.85;0.57;;;22.10;36.00;;;;;;5076154;28;20054;-67
2022/01/20 12:52:07;;;;;;;3.40;0.75;;;22.10;35.80;;;;;;5075926;28;20056;-67
2022/01/20 12:54:34;;;;;;;4.88;0.80;;;22.10;35.70;;;;;;5076102;28;20127;-65
2022/01/20 12:57:04;;;;;;;2.33;0.77;;;22.20;35.60;;;;;;5066321;28;20636;-67
2022/01/20 12:59:33;;;;;;;2.22;0.38;;;22.20;35.60;;;;;;5075470;28;20056;-65
2022/01/20 13:02:06;;;;;;;3.00;0.70;;;22.20;35.70;;;;;;5075912;28;20024;-65
2022/01/20 13:04:34;;;;;;;2.40;0.50;;;22.20;35.80;;;;;;5056015;28;20392;-66
2022/01/20 13:07:02;;;;;;;3.33;0.82;;;22.30;35.80;;;;;;5055687;28;20032;-65
2022/01/20 13:09:47;;;;;;;1.77;0.60;;;22.20;35.90;;;;;;5069488;28;20029;-66
2022/01/20 13:12:16;;;;;;;2.58;0.65;;;22.20;35.90;;;;;;5071513;28;20029;-67
2022/01/20 13:14:46;;;;;;;1.77;0.57;;;22.20;36.10;;;;;;5076164;28;20060;-65
2022/01/20 13:17:22;;;;;;;2.63;0.80;;;22.10;36.10;;;;;;5075314;28;20029;-67
2022/01/20 13:19:49;;;;;;;3.83;0.85;;;22.10;36.20;;;;;;5075434;28;20055;-68
2022/01/20 13:22:40;;;;;;;2.55;0.70;;;22.10;36.30;;;;;;5071513;28;20040;-67
2022/01/20 13:25:12;;;;;;;3.03;0.50;;;22.00;36.30;;;;;;5064785;28;20024;-66
2022/01/20 13:27:49;;;;;;;3.65;0.98;;;22.00;36.50;;;;;;5068275;28;20036;-66
2022/01/20 13:30:28;;;;;;;2.25;0.50;;;21.90;36.20;;;;;;5038890;28;20626;-67
2022/01/20 13:32:55;;;;;;;2.17;0.80;;;21.90;37.10;;;;;;5066130;28;20371;-68
2022/01/20 13:35:21;;;;;;;2.40;0.60;;;21.80;36.40;;;;;;5055656;28;20048;-68
2022/01/20 13:38:03;;;;;;;1.45;0.70;;;21.70;36.30;;;;;;5073836;28;20414;-66
2022/01/20 13:40:28;;;;;;;3.35;0.80;;;21.70;36.30;;;;;;5072958;28;20044;-66
2022/01/20 13:45:43;;;;;;;1.75;0.43;;;21.60;36.30;;;;;;5074325;28;20086;-66
2022/01/20 13:48:09;;;;;;;2.53;0.70;;;21.60;36.40;;;;;;5068704;28;20020;-66
2022/01/20 13:50:37;;;;;;;1.40;0.52;;;21.50;36.40;;;;;;5046073;28;20087;-66
2022/01/20 13:53:20;;;;;;;3.28;0.65;;;21.50;36.30;;;;;;5069266;28;20032;-67
2022/01/20 13:55:49;;;;;;;2.55;0.75;;;21.60;36.30;;;;;;5071971;28;20036;-67
2022/01/20 13:58:42;;;;;;;2.45;0.82;;;21.60;36.30;;;;;;5066462;28;20028;-68
2022/01/20 14:01:09;;;;;;;2.40;0.85;;;21.70;36.10;;;;;;5063882;28;20131;-68